• Join FlightAware (Why Join?)
  • Login
  • US Flag 
02:35PM EDT


 

Airport Tracker/Info


-or-


 

Live Flight TrackerFlight Track Log ✈ CCA4393 ✈ 20-Sep-2013 ✈ ZUJZ / JZH - ZGGG / CAN

Flight Track Log - Related Links

Times and Time Zones

All times are in EDT time to prevent confusion due to time zone crossing. See the CCA4393 flight status page for this flight to view local times or setup timezone preferences in your user account.

Time Position Orientation Groundspeed Altitude Reporting Facility
EDT Latitude Longitude Course Direction KTS MPH feet Rate Location/Type
08:10PM 32.3018 104.3207 136° Southeast  Level Estimated
08:11PM 32.2222 104.4112 136° Southeast  Level Estimated
08:12PM 32.1426 104.5015 136° Southeast  Level Estimated
08:13PM 32.0629 104.5917 136° Southeast  Level Estimated
08:14PM 31.9831 104.6816 136° Southeast  Level Estimated
08:15PM 31.9033 104.7715 136° Southeast  Level Estimated
08:15PM 32.7720 104.2430 136° Southeast 473 544 27,600  Level FlightAware
08:15PM 32.7510 104.2650 139° Southeast 471 542 27,800 1,020 Climbing FlightAware
08:15PM 32.7190 104.2860 151° Southeast 469 540 28,100 900 Climbing FlightAware
08:16PM 32.6860 104.2970 164° South 469 540 28,300 1,140 Climbing FlightAware
08:16PM 32.6090 104.2890 185° South 459 528 29,100 660 Climbing FlightAware
08:17PM 32.5450 104.2700 194° South 464 534 29,100  Level FlightAware
08:17PM 32.4660 104.2540 190° South 467 537 29,100 720 Level FlightAware
08:18PM 32.3890 104.2570 178° South 468 539 30,000 1,500 Climbing FlightAware
08:19PM 32.3190 104.2620 177° South 468 539 30,800 1,500 Climbing FlightAware
08:19PM 32.2360 104.2660 178° South 467 537 31,800 1,620 Climbing FlightAware
08:20PM 32.1680 104.2700 177° South 467 537 32,700 1,080 Climbing FlightAware
08:20PM 32.0860 104.2740 178° South 460 529 33,100 300 Climbing FlightAware
08:21PM 32.0220 104.2770 178° South 461 531 33,100  Level FlightAware
08:22PM 31.9360 104.2820 177° South 464 534 33,100  Level FlightAware
08:22PM 31.8670 104.2860 177° South 466 536 33,100  Level FlightAware
08:23PM 31.7860 104.2900 178° South 464 534 33,100  Level FlightAware
08:23PM 31.7080 104.2940 178° South 464 534 33,100  Level FlightAware
08:24PM 31.6390 104.2970 178° South 465 535 33,100  Level FlightAware
08:24PM 31.5650 104.3010 177° South 466 536 33,100  Level FlightAware
08:25PM 31.4840 104.3050 178° South 468 539 33,100  Level FlightAware
08:26PM 31.4060 104.3090 177° South 470 541 33,100  Level FlightAware
08:26PM 31.3410 104.3120 178° South 470 541 33,100  Level FlightAware
08:27PM 31.2570 104.3150 178° South 470 541 33,100  Level FlightAware
08:27PM 31.1840 104.3180 178° South 470 541 33,100  Level FlightAware
08:28PM 31.1020 104.3220 178° South 471 542 33,100  Level FlightAware
08:29PM 31.0310 104.3250 178° South 471 542 33,100  Level FlightAware
08:29PM 30.9510 104.3280 178° South 472 543 33,100  Level FlightAware
08:30PM 30.8740 104.3370 174° South 474 545 33,100  Level FlightAware
08:30PM 30.8040 104.3550 168° South 476 548 33,100  Level FlightAware
08:31PM 30.7260 104.3850 162° South 476 548 33,100  Level FlightAware
08:31PM 30.6530 104.4130 162° South 476 548 33,100  Level FlightAware
08:32PM 30.5840 104.4390 162° South 475 547 33,100  Level FlightAware
08:33PM 30.5060 104.4690 162° South 474 545 33,100  Level FlightAware
08:33PM 30.4400 104.4940 162° South 474 545 33,100  Level FlightAware
08:34PM 30.3630 104.5230 162° South 474 545 33,100  Level FlightAware
08:34PM 30.2890 104.5510 162° South 474 545 33,100  Level FlightAware
08:35PM 30.2210 104.5770 162° South 474 545 33,100  Level FlightAware
08:35PM 30.1550 104.6020 162° South 474 545 33,100  Level FlightAware
08:36PM 30.0790 104.6310 162° South 474 545 33,100  Level FlightAware
08:37PM 30.0120 104.6570 161° South 475 547 33,100  Level FlightAware
08:37PM 29.9360 104.6870 161° South 475 547 33,100  Level FlightAware
08:38PM 29.8340 104.7270 161° South 476 548 33,100  Level FlightAware
08:39PM 29.7690 104.7530 161° South 476 548 33,100  Level FlightAware
08:39PM 29.7050 104.7790 161° South 476 548 33,100  Level FlightAware
08:40PM 29.6390 104.8050 161° South 476 548 33,100  Level FlightAware
08:41PM 29.5760 104.8300 161° South 476 548 33,100  Level FlightAware
08:41PM 29.5120 104.8550 161° South 476 548 33,100  Level FlightAware
08:42PM 29.4480 104.8800 161° South 476 548 33,100  Level FlightAware
08:42PM 29.3830 104.9060 161° South 476 548 33,100  Level FlightAware
08:43PM 29.3190 104.9310 161° South 476 548 33,100  Level FlightAware
08:44PM 29.2530 104.9570 161° South 476 548 33,100  Level FlightAware
08:44PM 29.1900 104.9820 161° South 476 548 33,100  Level FlightAware
08:45PM 29.1260 105.0070 161° South 476 548 33,100  Level FlightAware
08:46PM 28.8790 105.0960 162° South 475 547 33,100  Level FlightAware
08:46PM 28.8010 105.1260 161° South 475 547 33,100  Level FlightAware
08:47PM 28.7330 105.1520 161° South 476 548 33,100  Level FlightAware
08:48PM 28.6410 105.1860 162° South 474 545 33,100  Level FlightAware
08:48PM 28.5780 105.2110 161° South 474 545 33,100  Level FlightAware
08:49PM 28.5150 105.2360 161° South 474 545 33,100  Level FlightAware
08:49PM 28.4510 105.2610 161° South 474 545 33,100  Level FlightAware
08:50PM 28.3880 105.2850 161° South 474 545 33,100  Level FlightAware
08:51PM 28.3240 105.3100 161° South 474 545 33,100  Level FlightAware
08:51PM 28.2610 105.3350 161° South 474 545 33,100  Level FlightAware
08:52PM 28.1960 105.3610 161° South 474 545 33,100  Level FlightAware
08:52PM 28.1320 105.3850 162° South 474 545 33,100  Level FlightAware
08:53PM 28.0690 105.4100 161° South 474 545 33,100  Level FlightAware
08:54PM 28.0050 105.4350 161° South 474 545 33,100  Level FlightAware
08:54PM 27.9400 105.4600 161° South 474 545 33,100  Level FlightAware
08:55PM 27.8770 105.4850 161° South 474 545 33,100  Level FlightAware
08:55PM 27.8130 105.5100 161° South 474 545 33,100  Level FlightAware
08:56PM 27.7500 105.5340 161° South 474 545 33,100  Level FlightAware
08:57PM 27.6860 105.5590 161° South 474 545 33,100  Level FlightAware
08:59PM 27.5823 105.7624 120° Southeast  Level Estimated
09:00PM 27.5272 105.8702 120° Southeast  Level Estimated
09:01PM 27.4719 105.9780 120° Southeast  Level Estimated
09:02PM 27.4166 106.0856 120° Southeast  Level Estimated
09:03PM 27.3612 106.1931 120° Southeast  Level Estimated
09:04PM 27.3057 106.3005 120° Southeast  Level Estimated
09:05PM 27.2501 106.4078 120° Southeast  Level Estimated
09:06PM 27.1944 106.5150 120° Southeast  Level Estimated
09:07PM 27.1387 106.6221 120° Southeast  Level Estimated
09:08PM 27.0828 106.7290 120° Southeast  Level Estimated
09:09PM 27.0269 106.8359 120° Southeast  Level Estimated
09:10PM 26.9709 106.9427 120° Southeast  Level Estimated
09:11PM 26.9149 107.0493 121° Southeast  Level Estimated
09:12PM 26.8587 107.1559 121° Southeast  Level Estimated
09:13PM 26.8025 107.2623 121° Southeast  Level Estimated
09:14PM 26.7462 107.3687 121° Southeast  Level Estimated
09:15PM 26.6898 107.4749 121° Southeast  Level Estimated
09:16PM 26.6333 107.5810 121° Southeast  Level Estimated
09:17PM 26.5768 107.6871 121° Southeast  Level Estimated
09:18PM 26.5202 107.7930 121° Southeast  Level Estimated
09:19PM 26.4635 107.8988 121° Southeast  Level Estimated
09:20PM 26.4067 108.0045 121° Southeast  Level Estimated
09:21PM 26.3498 108.1101 121° Southeast  Level Estimated
09:22PM 26.2929 108.2156 121° Southeast  Level Estimated
09:23PM 26.2359 108.3210 121° Southeast  Level Estimated
09:24PM 26.1788 108.4263 121° Southeast  Level Estimated
09:25PM 26.1217 108.5315 121° Southeast  Level Estimated
09:26PM 26.0644 108.6366 121° Southeast  Level Estimated
09:27PM 26.0071 108.7416 121° Southeast  Level Estimated
09:28PM 25.9497 108.8465 121° Southeast  Level Estimated
09:29PM 25.8922 108.9513 121° Southeast  Level Estimated
09:30PM 25.8347 109.0560 121° Southeast  Level Estimated
09:31PM 25.7771 109.1605 121° Southeast  Level Estimated
09:32PM 25.7194 109.2650 121° Southeast  Level Estimated
09:33PM 25.6616 109.3694 122° Southeast  Level Estimated
09:34PM 25.6038 109.4737 122° Southeast  Level Estimated
09:35PM 25.5459 109.5779 122° Southeast  Level Estimated
09:36PM 25.4879 109.6819 122° Southeast  Level Estimated
09:37PM 25.4298 109.7859 122° Southeast  Level Estimated
09:38PM 25.3717 109.8898 122° Southeast  Level Estimated
09:39PM 25.3135 109.9935 122° Southeast  Level Estimated
09:40PM 25.2552 110.0972 122° Southeast  Level Estimated
09:40PM 24.6550 110.7160 122° Southeast 465 535 33,100  Level FlightAware
09:41PM 25.1968 110.2008 122° Southeast  Level Estimated
09:41PM 24.6020 110.7720 136° Southeast 466 536 33,100  Level FlightAware
09:42PM 24.5540 110.8230 136° Southeast 466 536 33,100 60 Level FlightAware
09:42PM 24.4840 110.9000 135° Southeast 466 536 33,200  Climbing FlightAware
09:43PM 24.4070 110.9820 136° Southeast 463 533 33,100 -120 Descending FlightAware
09:44PM 24.3620 111.0310 135° Southeast 462 532 33,100  Level FlightAware
09:44PM 24.3120 111.0860 135° Southeast 462 532 33,100  Level FlightAware
09:45PM 24.2500 111.1570 134° Southeast 457 526 33,100  Level FlightAware
09:45PM 24.2080 111.2060 133° Southeast 457 526 33,100  Level FlightAware
09:46PM 24.1440 111.2780 134° Southeast 456 525 33,100 -120 Level FlightAware
09:47PM 24.0870 111.3430 134° Southeast 459 528 33,000 -240 Descending FlightAware
09:47PM 24.0320 111.4070 133° Southeast 459 528 32,800 -720 Descending FlightAware
09:48PM 23.9710 111.4750 134° Southeast 463 533 32,100 -660 Descending FlightAware
09:48PM 23.9280 111.5230 134° Southeast 466 536 32,100  Level FlightAware
09:49PM 23.8690 111.5920 133° Southeast 465 535 32,100  Level FlightAware
09:50PM 23.8130 111.6560 134° Southeast 466 536 32,100 -2,520 Level FlightAware
09:50PM 23.7520 111.7230 135° Southeast 465 535 29,000 -4,320 Descending FlightAware
09:51PM 23.7000 111.7820 134° Southeast 462 532 27,100 -2,880 Descending FlightAware
09:52PM 23.6450 111.8440 134° Southeast 445 512 25,600 -2,220 Descending FlightAware
09:52PM 23.6010 111.8930 134° Southeast 425 489 24,600 -1,500 Descending FlightAware
09:53PM 23.5600 111.9390 134° Southeast 395 455 24,100 -1,620 Descending FlightAware
09:53PM 23.5100 111.9950 134° Southeast 384 442 22,700 -1,980 Descending FlightAware
09:54PM 23.4650 112.0450 134° Southeast 372 428 21,500 -2,160 Descending FlightAware
09:55PM 23.4240 112.0920 134° Southeast 369 425 20,200 -2,040 Descending FlightAware
09:55PM 23.3840 112.1370 134° Southeast 359 413 19,200 -2,040 Descending FlightAware
09:56PM 23.3400 112.1850 135° Southeast 359 413 17,800 -2,280 Descending FlightAware
09:56PM 23.3040 112.2260 134° Southeast 357 411 16,700 -1,320 Descending FlightAware
09:57PM 23.2570 112.2790 134° Southeast 355 409 16,100 -1,560 Descending FlightAware
09:58PM 23.2140 112.3270 134° Southeast 338 389 14,600 -2,040 Descending FlightAware
09:58PM 23.1800 112.3640 135° Southeast 337 388 13,900 -840 Descending FlightAware
09:59PM 23.1400 112.4090 134° Southeast 337 388 13,700 -1,020 Descending FlightAware
09:59PM 23.1000 112.4530 135° Southeast 331 381 12,700 -1,920 Descending FlightAware
10:00PM 23.0780 112.4800 132° Southeast 328 377 11,900 -2,400 Descending FlightAware
10:00PM 23.0730 112.4910 116° Southeast 328 377 11,600 -2,100 Descending FlightAware
10:00PM 23.0700 112.5100 100° East 321 369 11,200 -1,260 Descending FlightAware
10:01PM 23.0700 112.5650 90° East 300 345 10,600 -1,020 Descending FlightAware
10:01PM 23.0700 112.6180 90° East 283 326 10,000 -1,140 Descending FlightAware
10:01PM 23.0690 112.6350 94° East 283 326 9,700 -1,560 Descending FlightAware
10:02PM 23.0690 112.6660 90° East 277 319 9,100 -1,680 Descending FlightAware
10:02PM 23.0690 112.6900 90° East 276 318 8,600 -1,500 Descending FlightAware
10:02PM 23.0690 112.7230 90° East 283 326 8,100 -900 Descending FlightAware
10:03PM 23.0690 112.7510 90° East 286 329 8,000 -180 Descending FlightAware
10:03PM 23.0680 112.7770 92° East 283 326 8,000 -360 Level FlightAware
10:03PM 23.0680 112.8040 90° East 279 321 7,800 -900 Descending FlightAware
10:04PM 23.0680 112.8320 90° East 274 315 7,400 -1,020 Descending FlightAware
10:04PM 23.0680 112.8690 90° East 257 296 7,000 -1,080 Descending FlightAware
10:05PM 23.0680 112.9010 90° East 257 296 6,500 -1,140 Descending FlightAware
10:05PM 23.0680 112.9270 90° East 258 297 6,200 -960 Descending FlightAware
10:05PM 23.0680 112.9490 90° East 258 297 5,900 -900 Descending FlightAware
10:06PM 23.0670 112.9770 92° East 255 293 5,600 -600 Descending FlightAware
10:06PM 23.0670 113.0260 90° East 247 284 5,300 -720 Descending FlightAware
10:07PM 23.0670 113.0520 90° East 227 261 4,900 -1,200 Descending FlightAware
10:07PM 23.0660 113.0770 92° East 223 257 4,500 -960 Descending FlightAware
10:07PM 23.0700 113.1070 82° East 208 239 4,100 -840 Descending FlightAware
10:08PM 23.0750 113.1130 48° Northeast 205 236 4,000 -840 Descending FlightAware
10:08PM 23.0880 113.1280 47° Northeast 203 234 3,700 -900 Descending FlightAware
10:08PM 23.1010 113.1430 47° Northeast 203 234 3,400 -720 Descending FlightAware
10:09PM 23.1160 113.1600 46° Northeast 198 228 3,200 -300 Descending FlightAware
10:09PM 23.1290 113.1750 47° Northeast 199 229 3,200 -180 Level FlightAware
10:09PM 23.1420 113.1900 47° Northeast 200 230 3,100 -180 Descending FlightAware
10:10PM 23.1520 113.2020 48° Northeast 193 222 3,100 120 Level FlightAware
10:10PM 23.1630 113.2150 47° Northeast 184 212 3,200 120 Climbing FlightAware
10:10PM 23.1770 113.2270 38° Northeast 182 209 3,200  Level FlightAware
10:10PM 23.1840 113.2310 28° Northeast 181 208 3,200  Level FlightAware
10:11PM 23.1940 113.2340 15° North 181 208 3,200  Level FlightAware
10:11PM 23.2110 113.2390 15° North 176 203 3,200 -300 Level FlightAware
10:11PM 23.2270 113.2430 13° North 172 198 3,000 -660 Descending FlightAware
10:12PM 23.2410 113.2470 15° North 172 198 2,800 -840 Descending FlightAware
10:12PM 23.2610 113.2520 13° North 157 181 2,400 -960 Descending FlightAware
10:12PM 23.2740 113.2560 16° North 139 160 2,100 -780 Descending FlightAware
10:13PM 23.2860 113.2590 13° North 124 143 1,900 -660 Descending FlightAware
10:13PM 23.2960 113.2620 15° North 121 139 1,700 -540 Descending FlightAware
10:13PM 23.3050 113.2640 12° North 122 140 1,600 -660 Descending FlightAware
10:14PM 23.3160 113.2670 14° North 123 142 1,300 -360 Descending FlightAware
10:14PM 23.3330 113.2710 12° North 122 140 1,300  Level FlightAware
10:17PM 23.3924 113.2988 23° Northeast  Level Estimated